Time;durP1;ratioP1;P1;durP2;ratioP2;P2;SDS_P1;SDS_P2;PMS_P1;PMS_P2;Temp;Humidity;BMP_temperature;BMP_pressure;BME280_temperature;BME280_humidity;BME280_pressure;Samples;Min_cycle;Max_cycle;Signal;HPM_P1;HPM_P2
2023/05/04 00:01:25;;;;;;;8.50;3.28;;;7.50;80.60;;;;;;5034571;28;20396;-46
2023/05/04 00:03:53;;;;;;;6.57;3.42;;;7.50;80.90;;;;;;5034518;28;20500;-46
2023/05/04 00:06:20;;;;;;;9.02;3.38;;;7.50;81.00;;;;;;5034494;28;20033;-46
2023/05/04 00:08:47;;;;;;;9.18;3.60;;;7.50;80.90;;;;;;5034242;28;20474;-46
2023/05/04 00:11:14;;;;;;;8.23;4.10;;;7.50;81.10;;;;;;5034847;28;20053;-45
2023/05/04 00:13:41;;;;;;;6.03;4.00;;;7.50;81.70;;;;;;5017457;28;20173;-46
2023/05/04 00:16:09;;;;;;;9.27;3.70;;;7.50;81.80;;;;;;5034432;28;20025;-46
2023/05/04 00:18:35;;;;;;;9.95;3.45;;;7.50;82.10;;;;;;5034650;28;20061;-46
2023/05/04 00:21:02;;;;;;;7.70;3.88;;;7.60;82.20;;;;;;5034747;28;20064;-46
2023/05/04 00:23:28;;;;;;;8.65;3.20;;;7.50;82.20;;;;;;5034980;28;20336;-46
2023/05/04 00:25:57;;;;;;;10.20;3.63;;;7.50;82.10;;;;;;5017077;28;20033;-46
2023/05/04 00:28:24;;;;;;;11.43;4.90;;;7.50;81.80;;;;;;5034493;28;20414;-46
2023/05/04 00:30:53;;;;;;;6.38;3.00;;;7.40;81.30;;;;;;5034025;28;20040;-46
2023/05/04 00:33:20;;;;;;;9.73;3.90;;;7.40;81.10;;;;;;5034420;28;20056;-46
2023/05/04 00:35:47;;;;;;;6.05;2.90;;;7.40;80.70;;;;;;5016804;28;20033;-46
2023/05/04 00:38:15;;;;;;;8.43;3.10;;;7.50;80.40;;;;;;5033998;28;20025;-45
2023/05/04 00:40:43;;;;;;;8.00;3.28;;;7.50;80.10;;;;;;5034463;28;20429;-46
2023/05/04 00:43:08;;;;;;;7.07;2.70;;;7.40;80.00;;;;;;5034517;28;20029;-46
2023/05/04 00:45:36;;;;;;;5.82;2.88;;;7.40;80.00;;;;;;5034726;28;20025;-46
2023/05/04 00:48:03;;;;;;;9.05;2.78;;;7.40;79.90;;;;;;5034485;28;20627;-47
2023/05/04 00:50:33;;;;;;;6.68;3.40;;;7.40;79.90;;;;;;5053643;28;20319;-45
2023/05/04 00:53:06;;;;;;;8.45;3.30;;;7.40;79.90;;;;;;5054068;28;20029;-45
2023/05/04 00:55:31;;;;;;;9.25;3.15;;;7.40;80.10;;;;;;5036795;28;20355;-46
2023/05/04 00:57:58;;;;;;;7.25;3.08;;;7.40;80.10;;;;;;5048712;28;20041;-46
2023/05/04 01:00:27;;;;;;;8.77;2.95;;;7.40;80.30;;;;;;5033823;28;20025;-46
2023/05/04 01:02:54;;;;;;;8.80;3.30;;;7.40;80.30;;;;;;5034018;28;20033;-47
2023/05/04 01:05:21;;;;;;;9.50;3.55;;;7.40;80.40;;;;;;5033993;28;20029;-45
2023/05/04 01:08:08;;;;;;;6.78;3.55;;;7.40;80.50;;;;;;5033477;28;20136;-45
2023/05/04 01:10:56;;;;;;;8.63;4.60;;;7.40;80.70;;;;;;5033559;28;20029;-46
2023/05/04 01:13:25;;;;;;;6.32;3.10;;;7.40;81.10;;;;;;5033769;28;20478;-46
2023/05/04 01:15:57;;;;;;;7.55;3.38;;;7.40;81.30;;;;;;5045587;28;20106;-46
2023/05/04 01:18:25;;;;;;;11.60;4.28;;;7.40;81.80;;;;;;5053029;28;20366;-46
2023/05/04 01:20:52;;;;;;;8.35;3.28;;;7.40;81.80;;;;;;5016065;28;20021;-49
2023/05/04 01:23:19;;;;;;;9.50;3.33;;;7.40;81.60;;;;;;5033688;28;20040;-45
2023/05/04 01:26:14;;;;;;;6.50;2.97;;;7.40;81.80;;;;;;5015782;28;20044;-45
2023/05/04 01:28:52;;;;;;;10.38;3.10;;;7.40;81.70;;;;;;5033248;28;20037;-48
2023/05/04 01:31:24;;;;;;;8.48;2.83;;;7.40;81.80;;;;;;5033217;28;20029;-45
2023/05/04 01:33:52;;;;;;;9.45;4.07;;;7.40;81.60;;;;;;5033744;28;20387;-45
2023/05/04 01:36:22;;;;;;;6.97;3.83;;;7.40;81.80;;;;;;5033334;28;20028;-46
2023/05/04 01:38:53;;;;;;;10.65;2.42;;;7.40;82.00;;;;;;5033098;28;20043;-46
2023/05/04 01:41:20;;;;;;;6.50;3.00;;;7.40;82.10;;;;;;5033398;28;20036;-45
2023/05/04 01:43:46;;;;;;;8.45;3.42;;;7.40;81.60;;;;;;5033556;28;20088;-45
2023/05/04 01:46:13;;;;;;;10.68;3.33;;;7.40;81.30;;;;;;5032905;28;20112;-45
2023/05/04 01:48:42;;;;;;;5.80;3.40;;;7.40;81.10;;;;;;5032110;28;20061;-45
2023/05/04 01:51:09;;;;;;;11.43;3.30;;;7.40;80.80;;;;;;5032929;28;20032;-45
2023/05/04 01:53:36;;;;;;;8.20;3.88;;;7.40;80.70;;;;;;5015993;28;20404;-45
2023/05/04 01:56:03;;;;;;;14.20;3.63;;;7.40;80.90;;;;;;5015594;28;20482;-46
2023/05/04 01:58:28;;;;;;;10.13;4.10;;;7.30;81.10;;;;;;5049065;28;20033;-46
2023/05/04 02:00:58;;;;;;;12.68;3.97;;;7.30;81.40;;;;;;5053002;28;20082;-45
2023/05/04 02:03:25;;;;;;;10.43;3.75;;;7.30;81.40;;;;;;5033956;28;20029;-45
2023/05/04 02:05:52;;;;;;;11.38;4.05;;;7.20;81.40;;;;;;5032915;28;20052;-47
2023/05/04 02:08:21;;;;;;;10.10;4.68;;;7.20;81.70;;;;;;5032827;28;20058;-45
2023/05/04 02:10:47;;;;;;;8.55;3.90;;;7.10;81.70;;;;;;5033867;28;20490;-46
2023/05/04 02:13:14;;;;;;;9.90;4.38;;;7.20;81.60;;;;;;5052979;28;20025;-46
2023/05/04 02:15:43;;;;;;;7.82;4.75;;;7.10;81.50;;;;;;5052665;28;20061;-47
2023/05/04 02:18:09;;;;;;;9.02;5.05;;;7.10;81.60;;;;;;5052415;28;20099;-47
2023/05/04 02:20:35;;;;;;;11.48;5.50;;;7.10;81.60;;;;;;5042119;28;20133;-45
2023/05/04 02:23:02;;;;;;;10.77;4.50;;;7.10;81.80;;;;;;5032623;28;20033;-46
2023/05/04 02:25:29;;;;;;;10.23;5.15;;;7.00;82.00;;;;;;5031418;28;20099;-45
2023/05/04 02:27:56;;;;;;;11.23;4.45;;;7.00;81.90;;;;;;5033364;28;20029;-45
2023/05/04 02:30:23;;;;;;;8.52;4.18;;;7.00;81.90;;;;;;5051998;28;20111;-46
2023/05/04 02:32:50;;;;;;;13.32;4.07;;;7.00;81.80;;;;;;5046270;28;20021;-45
2023/05/04 02:35:19;;;;;;;10.82;4.30;;;7.00;81.50;;;;;;5014870;28;20029;-46
2023/05/04 02:37:46;;;;;;;9.10;4.13;;;7.00;81.70;;;;;;5032518;28;20029;-45
2023/05/04 02:40:13;;;;;;;7.65;3.63;;;6.90;81.80;;;;;;5035774;28;20045;-45
2023/05/04 02:42:41;;;;;;;8.35;4.22;;;6.90;82.10;;;;;;5036669;28;20022;-46
2023/05/04 02:45:08;;;;;;;9.15;3.88;;;6.90;82.30;;;;;;5036358;28;20060;-49
2023/05/04 02:47:34;;;;;;;8.30;3.58;;;6.90;82.40;;;;;;5036515;28;20059;-45
2023/05/04 02:50:01;;;;;;;12.80;4.85;;;6.90;82.30;;;;;;5036468;28;20396;-45
2023/05/04 02:52:28;;;;;;;11.90;3.72;;;6.90;82.40;;;;;;5018847;28;20021;-46
2023/05/04 02:54:55;;;;;;;9.85;3.85;;;6.90;82.40;;;;;;5049825;28;20025;-46
2023/05/04 02:57:27;;;;;;;7.80;3.90;;;6.90;82.60;;;;;;5049406;28;20038;-46
2023/05/04 02:59:53;;;;;;;14.18;4.32;;;6.90;82.60;;;;;;5018695;28;20045;-47
2023/05/04 03:02:19;;;;;;;8.27;3.50;;;6.90;82.70;;;;;;5018567;28;20052;-47
2023/05/04 03:04:46;;;;;;;10.18;4.35;;;6.90;82.60;;;;;;5018521;28;20467;-47
2023/05/04 03:07:13;;;;;;;12.38;4.72;;;6.80;82.40;;;;;;5018362;28;20114;-45
2023/05/04 03:09:42;;;;;;;10.70;4.10;;;6.80;82.10;;;;;;5036136;28;20034;-50
2023/05/04 03:12:10;;;;;;;;;;;6.90;82.00;;;;;;5036561;28;20104;-49
2023/05/04 03:14:37;;;;;;;9.27;4.53;;;6.90;81.90;;;;;;5035688;28;19952;-48
2023/05/04 03:17:03;;;;;;;10.85;4.30;;;6.90;81.90;;;;;;5055303;28;20020;-49
2023/05/04 03:19:30;;;;;;;14.93;3.97;;;6.80;82.10;;;;;;5055745;28;20036;-46
2023/05/04 03:21:59;;;;;;;11.52;3.83;;;6.80;82.10;;;;;;5037988;28;20128;-45
2023/05/04 03:24:26;;;;;;;8.90;4.32;;;6.80;82.40;;;;;;5036664;28;20100;-45
2023/05/04 03:26:53;;;;;;;13.90;4.88;;;6.80;82.60;;;;;;5035376;28;20037;-46
2023/05/04 03:29:20;;;;;;;9.30;3.75;;;6.80;82.60;;;;;;5035676;28;20033;-46
2023/05/04 03:31:47;;;;;;;8.90;4.70;;;6.80;82.70;;;;;;5018042;28;20722;-45
2023/05/04 03:34:20;;;;;;;13.07;4.93;;;6.80;82.80;;;;;;5018089;28;20036;-48
2023/05/04 03:36:48;;;;;;;11.85;4.60;;;6.80;82.80;;;;;;5034989;28;20028;-45
2023/05/04 03:39:17;;;;;;;12.85;4.75;;;6.70;83.10;;;;;;5033246;28;20074;-46
2023/05/04 03:41:44;;;;;;;12.80;5.00;;;6.70;83.20;;;;;;5055472;28;20442;-47
2023/05/04 03:44:10;;;;;;;13.75;5.97;;;6.70;83.50;;;;;;5055217;28;20036;-49
2023/05/04 03:46:37;;;;;;;10.48;5.75;;;6.70;83.40;;;;;;5037298;28;20037;-46
2023/05/04 03:49:05;;;;;;;11.75;5.03;;;6.70;83.60;;;;;;5034650;28;20382;-49
2023/05/04 03:51:32;;;;;;;13.98;5.75;;;6.70;83.60;;;;;;5035128;28;20033;-46
2023/05/04 03:54:02;;;;;;;10.88;6.30;;;6.70;83.50;;;;;;5035451;28;20426;-50
2023/05/04 03:56:28;;;;;;;11.63;5.85;;;6.70;83.50;;;;;;5034993;28;20021;-45
2023/05/04 03:58:55;;;;;;;16.00;6.88;;;6.70;83.30;;;;;;5017333;28;20403;-46
2023/05/04 04:01:21;;;;;;;12.60;6.72;;;6.70;83.30;;;;;;5033947;28;20053;-48
2023/05/04 04:03:48;;;;;;;12.68;7.22;;;6.70;83.30;;;;;;5017549;28;20030;-50
2023/05/04 04:06:15;;;;;;;20.90;7.25;;;6.70;83.40;;;;;;5034773;28;20025;-46
2023/05/04 04:08:44;;;;;;;11.65;7.13;;;6.70;83.20;;;;;;5034818;28;20181;-46
2023/05/04 04:11:13;;;;;;;13.18;6.35;;;6.70;83.30;;;;;;5034794;28;20439;-46
2023/05/04 04:13:40;;;;;;;13.40;6.82;;;6.70;83.30;;;;;;5034888;28;20443;-46
2023/05/04 04:16:06;;;;;;;16.50;7.25;;;6.70;83.40;;;;;;5034761;28;20021;-45
2023/05/04 04:18:36;;;;;;;13.73;8.13;;;6.70;83.40;;;;;;5038089;28;20504;-47
2023/05/04 04:21:03;;;;;;;9.43;6.07;;;6.70;83.60;;;;;;5054554;28;20040;-45
2023/05/04 04:23:30;;;;;;;14.05;6.80;;;6.80;83.70;;;;;;5054495;28;20029;-46
2023/05/04 04:26:00;;;;;;;18.50;10.27;;;6.80;83.50;;;;;;5047934;28;20026;-46
2023/05/04 04:28:27;;;;;;;14.73;5.95;;;6.80;83.50;;;;;;5034537;28;20057;-46
2023/05/04 04:30:54;;;;;;;13.05;6.80;;;6.90;83.50;;;;;;5034466;28;20029;-46
2023/05/04 04:33:21;;;;;;;14.73;6.35;;;6.90;83.50;;;;;;5017300;28;20025;-46
2023/05/04 04:35:48;;;;;;;10.80;6.63;;;6.90;83.20;;;;;;5034376;28;20541;-47
2023/05/04 04:38:18;;;;;;;13.43;7.50;;;6.90;83.40;;;;;;5034292;28;20022;-47
2023/05/04 04:40:45;;;;;;;13.55;5.97;;;7.00;83.40;;;;;;5034374;28;20029;-46
2023/05/04 04:43:11;;;;;;;15.90;7.38;;;7.00;83.30;;;;;;5016907;28;20021;-45
2023/05/04 04:45:40;;;;;;;10.45;5.68;;;7.10;83.30;;;;;;5036746;28;20063;-46
2023/05/04 04:48:06;;;;;;;15.27;5.88;;;7.20;83.00;;;;;;5054049;28;20152;-46
2023/05/04 04:50:32;;;;;;;12.05;6.78;;;7.30;82.90;;;;;;5045520;28;20121;-46
2023/05/04 04:52:59;;;;;;;21.40;6.70;;;7.40;82.50;;;;;;5033808;28;20400;-46
2023/05/04 04:55:26;;;;;;;16.80;8.20;;;7.50;82.30;;;;;;5016218;28;20017;-45
2023/05/04 04:57:52;;;;;;;11.23;5.90;;;7.70;81.50;;;;;;5033679;28;20061;-45
2023/05/04 05:00:22;;;;;;;9.10;5.90;;;7.80;81.40;;;;;;5016010;28;20419;-47
2023/05/04 05:02:49;;;;;;;12.90;6.40;;;7.90;80.90;;;;;;5033076;28;20347;-46
2023/05/04 05:05:18;;;;;;;11.10;6.65;;;7.90;80.80;;;;;;5033802;28;20029;-46
2023/05/04 05:07:45;;;;;;;12.68;6.57;;;7.90;80.60;;;;;;5033279;28;20062;-45
2023/05/04 05:10:16;;;;;;;8.75;5.80;;;7.90;80.40;;;;;;5033748;28;20029;-46
2023/05/04 05:12:43;;;;;;;14.18;6.43;;;8.00;81.00;;;;;;5016031;28;20363;-47
2023/05/04 05:15:10;;;;;;;12.30;7.00;;;8.00;81.10;;;;;;5047482;28;20504;-46
2023/05/04 05:17:39;;;;;;;12.18;5.93;;;8.00;81.20;;;;;;5053408;28;20367;-49
2023/05/04 05:20:11;;;;;;;11.57;5.70;;;8.10;80.80;;;;;;5053284;28;20091;-45
2023/05/04 05:22:39;;;;;;;12.27;6.97;;;8.10;80.60;;;;;;5047376;28;20060;-47
2023/05/04 05:25:06;;;;;;;13.30;6.20;;;8.20;80.30;;;;;;5033487;28;20079;-46
2023/05/04 05:27:36;;;;;;;11.00;5.47;;;8.20;79.90;;;;;;5033494;28;20021;-48
2023/05/04 05:30:04;;;;;;;12.38;6.10;;;8.30;80.10;;;;;;5033206;28;20466;-47
2023/05/04 05:32:32;;;;;;;8.88;6.00;;;8.30;80.00;;;;;;5015706;28;20040;-46
2023/05/04 05:34:59;;;;;;;13.57;6.90;;;8.40;80.10;;;;;;5033356;28;20022;-46
2023/05/04 05:37:27;;;;;;;15.70;7.32;;;8.40;79.80;;;;;;5048821;28;20044;-48
2023/05/04 05:39:53;;;;;;;13.77;6.07;;;8.40;79.60;;;;;;5053166;28;20126;-46
2023/05/04 05:42:21;;;;;;;9.30;5.63;;;8.40;79.30;;;;;;5040880;28;20044;-49
2023/05/04 05:44:46;;;;;;;10.90;6.18;;;8.50;79.30;;;;;;5033076;28;20026;-46
2023/05/04 05:47:13;;;;;;;9.35;5.40;;;8.60;78.90;;;;;;5032617;28;20040;-46
2023/05/04 05:49:41;;;;;;;14.55;6.32;;;8.80;79.10;;;;;;5032538;28;20028;-48
2023/05/04 05:52:09;;;;;;;17.33;5.95;;;9.00;78.60;;;;;;5032028;28;20044;-48
2023/05/04 05:54:36;;;;;;;8.90;5.30;;;9.10;77.00;;;;;;5032785;28;20036;-48
2023/05/04 05:57:02;;;;;;;9.45;5.57;;;9.30;77.00;;;;;;5032704;28;20027;-46
2023/05/04 05:59:32;;;;;;;12.35;6.18;;;9.40;76.60;;;;;;5032647;28;20025;-50
2023/05/04 06:02:01;;;;;;;9.18;5.43;;;9.40;75.60;;;;;;5032767;28;20339;-46
2023/05/04 06:04:28;;;;;;;10.07;5.95;;;9.40;75.20;;;;;;5032987;28;20069;-47
2023/05/04 06:06:54;;;;;;;13.30;7.35;;;9.40;75.10;;;;;;5032673;28;20514;-46
2023/05/04 06:09:24;;;;;;;11.57;5.60;;;9.40;75.40;;;;;;5015455;28;20043;-47
2023/05/04 06:11:53;;;;;;;12.13;5.20;;;9.30;74.70;;;;;;5032627;28;20422;-48
2023/05/04 06:14:20;;;;;;;14.95;6.60;;;9.40;75.10;;;;;;5038882;28;20045;-47
2023/05/04 06:16:50;;;;;;;10.13;4.97;;;9.40;75.00;;;;;;5005537;28;20021;-46
2023/05/04 06:19:16;;;;;;;11.55;4.93;;;9.50;75.00;;;;;;5039339;28;20737;-46
2023/05/04 06:21:43;;;;;;;12.15;5.45;;;9.50;74.50;;;;;;5039423;28;20116;-46
2023/05/04 06:24:10;;;;;;;13.88;5.03;;;9.40;74.90;;;;;;5039782;28;20087;-46
2023/05/04 06:26:37;;;;;;;11.45;6.05;;;9.50;74.40;;;;;;5021533;28;20026;-47
2023/05/04 06:29:04;;;;;;;9.55;5.53;;;9.50;75.00;;;;;;5021816;28;20033;-46
2023/05/04 06:31:31;;;;;;;9.20;5.88;;;9.60;75.00;;;;;;5039068;28;20489;-48
2023/05/04 06:33:57;;;;;;;10.07;5.60;;;9.70;73.80;;;;;;5039355;28;20099;-46
2023/05/04 06:36:26;;;;;;;10.82;4.93;;;9.70;74.20;;;;;;5021991;28;20037;-48
2023/05/04 06:38:54;;;;;;;11.70;5.25;;;9.70;73.70;;;;;;5039247;28;20030;-47
2023/05/04 06:41:21;;;;;;;10.00;5.38;;;9.70;73.90;;;;;;5039205;28;20029;-48
2023/05/04 06:43:47;;;;;;;9.23;5.47;;;9.80;74.70;;;;;;5039593;28;20056;-46
2023/05/04 06:46:15;;;;;;;9.82;5.82;;;9.80;73.50;;;;;;5021361;28;20040;-46
2023/05/04 06:48:42;;;;;;;9.25;4.90;;;9.80;73.80;;;;;;5038988;28;20080;-48
2023/05/04 06:51:11;;;;;;;9.73;4.63;;;10.00;73.20;;;;;;5038700;28;20056;-46
2023/05/04 06:53:36;;;;;;;8.07;4.15;;;9.90;73.40;;;;;;5039203;28;20066;-46
2023/05/04 06:56:06;;;;;;;10.15;5.10;;;10.00;72.80;;;;;;5039311;28;20062;-49
2023/05/04 06:58:36;;;;;;;13.43;5.15;;;10.10;72.80;;;;;;5021551;28;20048;-46
2023/05/04 07:01:03;;;;;;;10.15;5.25;;;10.00;72.60;;;;;;5038718;28;20034;-46
2023/05/04 07:03:29;;;;;;;10.25;5.15;;;10.20;73.50;;;;;;5038943;28;20040;-50
2023/05/04 07:05:55;;;;;;;12.63;5.32;;;10.40;73.00;;;;;;5021641;28;20048;-46
2023/05/04 07:08:22;;;;;;;10.55;6.60;;;10.50;72.70;;;;;;5038589;28;20057;-46
2023/05/04 07:10:48;;;;;;;8.90;5.70;;;10.40;72.60;;;;;;5021082;28;20450;-46
2023/05/04 07:13:16;;;;;;;16.13;6.70;;;10.50;72.30;;;;;;5038840;28;20076;-48
2023/05/04 07:15:43;;;;;;;11.82;6.25;;;10.70;71.70;;;;;;5039068;28;20029;-48
2023/05/04 07:18:10;;;;;;;29.40;8.38;;;10.80;71.60;;;;;;5038792;28;20096;-46
2023/05/04 07:20:37;;;;;;;10.65;5.20;;;11.00;71.80;;;;;;5038542;28;20025;-47
2023/05/04 07:23:06;;;;;;;10.75;4.88;;;11.30;70.00;;;;;;5021446;28;20017;-46
2023/05/04 07:25:32;;;;;;;11.02;5.88;;;11.50;70.00;;;;;;5035265;28;20033;-46
2023/05/04 07:27:59;;;;;;;8.15;4.45;;;11.80;68.80;;;;;;5035737;28;20033;-46
2023/05/04 07:30:26;;;;;;;9.73;4.57;;;12.00;68.50;;;;;;5035383;28;20331;-47
2023/05/04 07:32:53;;;;;;;7.57;4.10;;;12.10;66.30;;;;;;5035635;28;20413;-47
2023/05/04 07:35:22;;;;;;;11.82;4.65;;;12.40;65.40;;;;;;5018288;28;20470;-48
2023/05/04 07:37:49;;;;;;;10.33;4.80;;;12.60;65.60;;;;;;5035580;28;20029;-53
2023/05/04 07:40:16;;;;;;;9.48;4.05;;;12.50;65.30;;;;;;5035104;28;20138;-47
2023/05/04 07:42:43;;;;;;;10.40;4.43;;;12.70;65.20;;;;;;5034577;28;20085;-46
2023/05/04 07:45:10;;;;;;;8.70;4.20;;;12.90;64.90;;;;;;5034928;28;20623;-49
2023/05/04 07:47:37;;;;;;;8.23;4.32;;;13.00;63.70;;;;;;5034814;28;20021;-48
2023/05/04 07:50:03;;;;;;;7.97;4.18;;;13.10;63.90;;;;;;5017334;28;20068;-46
2023/05/04 07:52:29;;;;;;;8.07;3.97;;;13.30;64.90;;;;;;5034802;28;20104;-49
2023/05/04 07:54:56;;;;;;;9.32;5.07;;;13.40;63.70;;;;;;5034807;28;20050;-47
2023/05/04 07:57:22;;;;;;;10.43;4.35;;;13.60;62.20;;;;;;5034922;28;20022;-46
2023/05/04 07:59:52;;;;;;;8.50;4.03;;;13.70;62.50;;;;;;5034929;28;20040;-46
2023/05/04 08:02:19;;;;;;;6.35;3.88;;;13.80;61.90;;;;;;5049189;28;20044;-49
2023/05/04 08:04:46;;;;;;;9.02;4.82;;;13.90;61.40;;;;;;5054908;28;20037;-49
2023/05/04 08:07:14;;;;;;;12.20;5.35;;;14.10;61.60;;;;;;5054840;28;20052;-46
2023/05/04 08:09:42;;;;;;;8.32;5.65;;;14.20;60.90;;;;;;5054651;28;20056;-47
2023/05/04 08:12:11;;;;;;;8.55;4.05;;;13.90;61.50;;;;;;5036743;28;20057;-47
2023/05/04 08:14:37;;;;;;;10.73;4.97;;;13.90;61.20;;;;;;5035190;28;20033;-46
2023/05/04 08:17:03;;;;;;;8.95;4.20;;;13.90;61.70;;;;;;5035564;28;20032;-46
2023/05/04 08:19:30;;;;;;;9.77;5.38;;;13.80;61.90;;;;;;5054507;28;20143;-47
2023/05/04 08:21:58;;;;;;;6.57;3.85;;;13.60;61.30;;;;;;5054469;28;20036;-48
2023/05/04 08:24:25;;;;;;;8.35;3.95;;;13.60;62.60;;;;;;5054692;28;20029;-47
2023/05/04 08:26:55;;;;;;;8.25;4.28;;;13.90;62.30;;;;;;5048494;28;20025;-49
2023/05/04 08:29:21;;;;;;;7.07;4.05;;;14.00;61.30;;;;;;5034453;28;20428;-53
2023/05/04 08:31:57;;;;;;;11.85;5.05;;;14.40;59.70;;;;;;5034445;28;20040;-47
2023/05/04 08:34:24;;;;;;;8.65;4.55;;;14.80;60.10;;;;;;5029604;28;20045;-48
2023/05/04 08:36:51;;;;;;;10.90;4.65;;;15.30;58.10;;;;;;5052225;28;20025;-47
2023/05/04 08:39:20;;;;;;;9.52;4.60;;;15.20;56.70;;;;;;5021399;28;20414;-48
2023/05/04 08:41:47;;;;;;;7.95;4.90;;;15.10;58.60;;;;;;5034272;28;20404;-50
2023/05/04 08:44:12;;;;;;;11.25;5.00;;;15.40;57.60;;;;;;5033139;28;20034;-46
2023/05/04 08:46:39;;;;;;;9.98;5.45;;;15.30;59.60;;;;;;5033743;28;20558;-46
2023/05/04 08:49:09;;;;;;;12.02;4.30;;;15.10;56.80;;;;;;5034471;28;20069;-46
2023/05/04 08:51:36;;;;;;;12.75;4.20;;;15.00;58.90;;;;;;5040222;28;20037;-47
2023/05/04 08:54:10;;;;;;;10.57;4.32;;;15.00;58.60;;;;;;5054108;28;20112;-46
2023/05/04 08:56:39;;;;;;;9.48;4.97;;;15.40;57.70;;;;;;5017944;28;20032;-47
2023/05/04 08:59:08;;;;;;;11.40;4.95;;;15.40;58.00;;;;;;5033948;28;20017;-49
2023/05/04 09:01:39;;;;;;;14.00;5.27;;;15.40;57.70;;;;;;5016282;28;20040;-48
2023/05/04 09:04:07;;;;;;;8.18;4.70;;;15.60;58.90;;;;;;5017135;28;20272;-50
2023/05/04 09:06:36;;;;;;;11.68;4.55;;;15.40;57.80;;;;;;5053683;28;20089;-47
2023/05/04 09:09:03;;;;;;;10.05;4.75;;;15.60;57.90;;;;;;5053599;28;20072;-47
2023/05/04 09:11:30;;;;;;;9.50;4.65;;;15.30;59.50;;;;;;5050188;28;20362;-46
2023/05/04 09:13:57;;;;;;;9.73;4.43;;;15.30;57.60;;;;;;5016246;28;20071;-47
2023/05/04 09:16:36;;;;;;;10.23;4.60;;;15.10;60.10;;;;;;5016349;28;20526;-46
2023/05/04 09:19:15;;;;;;;9.43;4.32;;;15.40;60.20;;;;;;5033445;28;20025;-46
2023/05/04 09:21:42;;;;;;;9.05;4.05;;;15.50;60.40;;;;;;5033621;28;20037;-46
2023/05/04 09:24:11;;;;;;;8.60;4.00;;;15.50;59.50;;;;;;5033612;28;20108;-46
2023/05/04 09:26:38;;;;;;;7.57;4.03;;;15.90;58.60;;;;;;5033651;28;20485;-46
2023/05/04 09:29:13;;;;;;;9.73;3.95;;;16.00;57.20;;;;;;5046285;28;20032;-47
2023/05/04 09:31:51;;;;;;;9.48;3.72;;;16.10;57.50;;;;;;5053096;28;20021;-47
2023/05/04 09:34:20;;;;;;;8.18;3.58;;;16.30;58.40;;;;;;5024242;28;20418;-47
2023/05/04 09:37:07;;;;;;;8.15;4.05;;;16.30;55.00;;;;;;5033236;28;20350;-47
2023/05/04 09:39:34;;;;;;;8.75;3.55;;;16.10;54.40;;;;;;5015816;28;20044;-47
2023/05/04 09:42:01;;;;;;;7.20;4.07;;;16.00;57.20;;;;;;5015632;28;20029;-47
2023/05/04 09:44:27;;;;;;;9.30;3.63;;;16.20;58.40;;;;;;5033097;28;20021;-46
2023/05/04 09:46:58;;;;;;;11.05;4.60;;;16.00;56.10;;;;;;5033234;28;20025;-48
2023/05/04 09:49:35;;;;;;;14.80;5.13;;;16.20;57.30;;;;;;5032926;28;20022;-49
2023/05/04 09:52:03;;;;;;;8.13;4.22;;;16.60;55.30;;;;;;5032943;28;20037;-47
2023/05/04 09:54:33;;;;;;;13.20;4.00;;;16.50;56.10;;;;;;5033026;28;20037;-48
2023/05/04 09:57:14;;;;;;;8.48;3.92;;;16.60;55.20;;;;;;5032927;28;20026;-47
2023/05/04 09:59:41;;;;;;;8.45;4.43;;;16.50;55.00;;;;;;5015563;28;20025;-47
2023/05/04 10:02:10;;;;;;;8.05;3.80;;;16.60;53.50;;;;;;5033015;28;20037;-47
2023/05/04 10:04:44;;;;;;;10.48;4.10;;;16.70;58.50;;;;;;5032773;28;20348;-47
2023/05/04 10:07:09;;;;;;;9.13;4.15;;;16.90;55.20;;;;;;5032350;28;20025;-47
2023/05/04 10:09:37;;;;;;;7.72;4.20;;;16.70;54.20;;;;;;5033246;28;20041;-49
2023/05/04 10:12:09;;;;;;;10.45;4.10;;;16.40;55.00;;;;;;5032617;28;20362;-47
2023/05/04 10:14:37;;;;;;;8.23;3.92;;;16.50;57.00;;;;;;5033087;28;20025;-49
2023/05/04 10:17:32;;;;;;;7.05;3.30;;;16.30;55.90;;;;;;5032643;28;20395;-49
2023/05/04 10:20:08;;;;;;;8.25;4.03;;;16.10;55.30;;;;;;5032819;28;20030;-47
2023/05/04 10:22:52;;;;;;;8.32;4.32;;;16.10;57.30;;;;;;5032725;28;20041;-48
2023/05/04 10:25:32;;;;;;;12.38;3.58;;;16.10;57.70;;;;;;5015380;28;20359;-49
2023/05/04 10:28:25;;;;;;;12.80;4.40;;;16.00;55.30;;;;;;5015157;28;20029;-48
2023/05/04 10:30:57;;;;;;;6.45;3.83;;;16.10;55.60;;;;;;5032497;28;20108;-47
2023/05/04 10:33:25;;;;;;;12.70;4.43;;;16.00;56.80;;;;;;5034348;28;20609;-49
2023/05/04 10:35:53;;;;;;;10.10;4.22;;;16.00;54.10;;;;;;5052033;28;20343;-48
2023/05/04 10:38:34;;;;;;;11.20;5.03;;;16.00;56.70;;;;;;5052147;28;20024;-47
2023/05/04 10:41:19;;;;;;;7.75;4.72;;;16.20;54.70;;;;;;5034377;28;20026;-47
2023/05/04 10:43:49;;;;;;;8.90;3.70;;;15.90;56.50;;;;;;5015604;28;20030;-47
2023/05/04 10:46:18;;;;;;;10.65;4.32;;;15.80;57.50;;;;;;5032096;28;20026;-50
2023/05/04 10:48:45;;;;;;;8.80;4.03;;;16.10;56.40;;;;;;5032357;28;20338;-47
2023/05/04 10:51:23;;;;;;;10.25;4.47;;;16.20;56.50;;;;;;5032043;28;20042;-47
2023/05/04 10:53:50;;;;;;;9.32;3.85;;;16.40;57.20;;;;;;5031894;28;20021;-47
2023/05/04 10:56:35;;;;;;;9.50;3.78;;;16.60;58.00;;;;;;5036652;28;20442;-46
2023/05/04 10:59:10;;;;;;;10.00;4.50;;;16.90;55.80;;;;;;5051783;28;20029;-47
2023/05/04 11:01:46;;;;;;;11.00;3.88;;;17.20;53.80;;;;;;5038995;28;20042;-47
2023/05/04 11:04:20;;;;;;;7.50;3.83;;;17.30;53.80;;;;;;5035758;28;20032;-47
2023/05/04 11:07:07;;;;;;;8.95;4.18;;;17.40;52.80;;;;;;5035785;28;20030;-49
2023/05/04 11:09:41;;;;;;;7.30;4.22;;;17.50;53.40;;;;;;5038931;28;20056;-49
2023/05/04 11:12:14;;;;;;;10.55;4.30;;;17.30;50.30;;;;;;5055775;28;20036;-49
2023/05/04 11:14:41;;;;;;;6.13;3.95;;;17.20;58.00;;;;;;5058912;28;20028;-47
2023/05/04 11:17:11;;;;;;;7.22;3.90;;;17.40;51.90;;;;;;5055896;28;20378;-48
2023/05/04 11:19:50;;;;;;;;;;;17.20;52.10;;;;;;5075909;28;20033;-47
2023/05/04 11:22:17;;;;;;;7.53;3.97;;;17.20;52.80;;;;;;5065284;28;20364;-50
2023/05/04 11:24:45;;;;;;;11.60;5.50;;;17.20;52.70;;;;;;5055590;28;20134;-49
2023/05/04 11:27:25;;;;;;;15.98;4.20;;;16.90;52.70;;;;;;5055466;28;20025;-48
2023/05/04 11:29:58;;;;;;;9.40;4.53;;;16.50;51.70;;;;;;5055872;28;20339;-48
2023/05/04 11:32:46;;;;;;;7.50;3.97;;;16.60;53.90;;;;;;5055173;28;20021;-47
2023/05/04 11:35:31;;;;;;;14.73;4.40;;;16.70;53.60;;;;;;5055289;28;20029;-47
2023/05/04 11:37:58;;;;;;;13.45;4.63;;;16.70;53.20;;;;;;5055622;28;20327;-49
2023/05/04 11:40:26;;;;;;;7.85;4.07;;;16.90;52.80;;;;;;5055234;28;20021;-47
2023/05/04 11:42:56;;;;;;;9.25;4.47;;;17.00;52.80;;;;;;5075533;28;20481;-47
2023/05/04 11:45:33;;;;;;;9.85;4.72;;;17.10;51.40;;;;;;5075130;28;20025;-49
2023/05/04 11:48:00;;;;;;;12.20;4.25;;;17.20;51.90;;;;;;5073549;28;20036;-49
2023/05/04 11:50:29;;;;;;;7.65;4.30;;;17.00;51.60;;;;;;5055236;28;20350;-49
2023/05/04 11:53:07;;;;;;;9.10;4.35;;;16.90;51.70;;;;;;5055387;28;20096;-47
2023/05/04 11:55:36;;;;;;;11.32;4.03;;;16.60;51.30;;;;;;5037439;28;20056;-48
2023/05/04 11:58:12;;;;;;;8.32;4.07;;;16.60;51.80;;;;;;5066377;28;20446;-47
2023/05/04 12:00:44;;;;;;;11.88;5.35;;;16.90;53.40;;;;;;5075059;28;20124;-48
2023/05/04 12:03:24;;;;;;;14.57;5.55;;;17.00;56.40;;;;;;5071657;28;20349;-47
2023/05/04 12:05:55;;;;;;;10.05;5.30;;;17.10;58.60;;;;;;5054721;28;20021;-49
2023/05/04 12:08:33;;;;;;;9.95;4.88;;;17.00;57.80;;;;;;5054820;28;20053;-48
2023/05/04 12:11:24;;;;;;;13.82;5.00;;;17.20;58.60;;;;;;5054893;28;20061;-48
2023/05/04 12:14:09;;;;;;;9.43;5.35;;;17.40;56.90;;;;;;5037269;28;20032;-47
2023/05/04 12:16:36;;;;;;;8.63;5.22;;;17.50;55.00;;;;;;5054651;28;20028;-48
2023/05/04 12:19:13;;;;;;;12.60;5.38;;;17.90;56.10;;;;;;5054585;28;20044;-47
2023/05/04 12:21:51;;;;;;;9.85;5.78;;;17.80;56.00;;;;;;5053638;28;20051;-47
2023/05/04 12:24:25;;;;;;;10.43;4.75;;;17.80;55.40;;;;;;5054584;28;20118;-49
2023/05/04 12:26:52;;;;;;;11.70;4.93;;;17.70;51.80;;;;;;5054728;28;20132;-47
2023/05/04 12:29:21;;;;;;;10.48;5.07;;;17.40;53.00;;;;;;5053916;28;20111;-47
2023/05/04 12:31:47;;;;;;;9.32;5.57;;;17.80;59.00;;;;;;5054518;28;20025;-46
2023/05/04 12:34:14;;;;;;;12.10;5.50;;;17.90;59.40;;;;;;5054304;28;20391;-46
2023/05/04 12:36:43;;;;;;;8.35;4.65;;;17.90;56.80;;;;;;5036841;28;20041;-46
2023/05/04 12:39:10;;;;;;;9.45;4.65;;;18.00;57.70;;;;;;5054416;28;20024;-47
2023/05/04 12:41:36;;;;;;;15.73;5.63;;;18.30;56.40;;;;;;5054402;28;20029;-47
2023/05/04 12:44:07;;;;;;;10.43;5.15;;;18.50;57.30;;;;;;5053814;28;20108;-49
2023/05/04 12:46:36;;;;;;;7.68;4.55;;;18.70;55.60;;;;;;5054101;28;20043;-47
2023/05/04 12:49:03;;;;;;;6.63;3.97;;;18.60;51.40;;;;;;5054251;28;20060;-49
2023/05/04 12:51:31;;;;;;;9.30;4.47;;;18.20;53.50;;;;;;5054155;28;20040;-47
2023/05/04 12:53:58;;;;;;;78.20;16.75;;;18.40;56.00;;;;;;5054124;28;20025;-51
2023/05/04 12:56:24;;;;;;;8.63;5.55;;;18.10;54.10;;;;;;5073096;28;20039;-47
2023/05/04 12:58:51;;;;;;;9.52;4.32;;;17.70;53.00;;;;;;5073947;28;20055;-48